createdAt,value
2018-11-01T00:01:16.072Z,11.08
2018-11-01T00:03:44.601Z,10.82
2018-11-01T00:06:13.098Z,10.72
2018-11-01T00:08:42.388Z,11.25
2018-11-01T00:11:11.258Z,11.00
2018-11-01T00:13:39.774Z,11.35
2018-11-01T00:16:08.630Z,10.48
2018-11-01T00:18:37.176Z,10.48
2018-11-01T00:21:06.852Z,10.75
2018-11-01T00:23:35.868Z,10.08
2018-11-01T00:26:04.466Z,10.78
2018-11-01T00:28:33.284Z,10.78
2018-11-01T00:31:02.006Z,10.18
2018-11-01T00:33:30.560Z,10.23
2018-11-01T00:35:59.217Z,10.65
2018-11-01T00:38:27.837Z,11.43
2018-11-01T00:40:57.021Z,10.85
2018-11-01T00:43:26.195Z,10.55
2018-11-01T00:45:54.704Z,10.03
2018-11-01T00:48:24.991Z,10.68
2018-11-01T00:50:53.821Z,8.85
2018-11-01T00:53:22.682Z,9.63
2018-11-01T00:55:51.513Z,9.65
2018-11-01T00:58:20.378Z,9.23
2018-11-01T01:00:49.220Z,10.15
2018-11-01T01:03:18.069Z,10.10
2018-11-01T01:05:46.907Z,8.90
2018-11-01T01:08:15.731Z,8.55
2018-11-01T01:10:44.932Z,9.53
2018-11-01T01:13:13.417Z,9.20
2018-11-01T01:15:42.465Z,8.95
2018-11-01T01:18:10.977Z,8.85
2018-11-01T01:20:39.838Z,9.08
2018-11-01T01:23:08.697Z,9.85
2018-11-01T01:25:37.528Z,9.73
2018-11-01T01:28:06.699Z,9.15
2018-11-01T01:30:35.218Z,10.13
2018-11-01T01:33:04.049Z,9.98
2018-11-01T01:35:32.537Z,10.10
2018-11-01T01:38:01.009Z,9.23
2018-11-01T01:40:29.853Z,9.28
2018-11-01T01:42:58.345Z,9.05
2018-11-01T01:45:27.148Z,9.05
2018-11-01T01:47:55.980Z,9.73
2018-11-01T01:50:24.835Z,8.05
2018-11-01T01:52:53.490Z,9.23
2018-11-01T01:55:22.308Z,7.97
2018-11-01T01:57:50.827Z,8.23
2018-11-01T02:00:20.930Z,23.92
2018-11-01T02:02:50.841Z,9.80
2018-11-01T02:05:20.678Z,8.73
2018-11-01T02:07:49.228Z,8.28
2018-11-01T02:10:18.833Z,7.55
2018-11-01T02:12:47.389Z,8.95
2018-11-01T02:15:17.245Z,8.18
2018-11-01T02:17:45.789Z,9.28
2018-11-01T02:20:15.975Z,8.70
2018-11-01T02:22:44.945Z,8.73
2018-11-01T02:25:13.528Z,8.53
2018-11-01T02:27:47.407Z,8.45
2018-11-01T02:30:17.493Z,8.20
2018-11-01T02:32:46.612Z,8.78
2018-11-01T02:35:16.687Z,9.53
2018-11-01T02:37:46.214Z,9.20
2018-11-01T02:40:16.168Z,9.43
2018-11-01T02:42:45.164Z,8.93
2018-11-01T02:45:14.486Z,8.50
2018-11-01T02:47:43.115Z,9.50
2018-11-01T02:50:12.880Z,9.23
2018-11-01T02:52:42.270Z,8.45
2018-11-01T02:55:11.326Z,8.70
2018-11-01T02:57:40.505Z,8.50
2018-11-01T03:00:12.429Z,8.00
2018-11-01T03:02:41.617Z,8.50
2018-11-01T03:05:10.952Z,8.05
2018-11-01T03:07:39.833Z,8.25
2018-11-01T03:10:09.743Z,8.08
2018-11-01T03:12:39.281Z,8.40
2018-11-01T03:15:08.917Z,7.33
2018-11-01T03:17:37.843Z,8.78
2018-11-01T03:20:08.518Z,8.55
2018-11-01T03:22:37.371Z,8.75
2018-11-01T03:25:06.637Z,8.28
2018-11-01T03:27:35.473Z,9.03
2018-11-01T03:30:04.369Z,9.40
2018-11-01T03:32:32.876Z,9.33
2018-11-01T03:35:01.393Z,7.80
2018-11-01T03:37:30.237Z,10.48
2018-11-01T03:39:59.067Z,8.80
2018-11-01T03:42:27.585Z,8.63
2018-11-01T03:44:56.082Z,8.98
2018-11-01T03:47:25.266Z,8.78
2018-11-01T03:49:54.114Z,8.53
2018-11-01T03:52:23.020Z,7.83
2018-11-01T03:54:51.657Z,7.65
2018-11-01T03:57:20.501Z,8.38
2018-11-01T03:59:49.339Z,8.50
2018-11-01T04:02:18.189Z,8.73
2018-11-01T04:04:46.717Z,9.90
2018-11-01T04:07:15.988Z,9.83
2018-11-01T04:09:44.513Z,8.90
2018-11-01T04:12:13.381Z,7.85
2018-11-01T04:14:41.874Z,9.18
2018-11-01T04:17:10.453Z,9.25
2018-11-01T04:19:39.081Z,8.25
2018-11-01T04:22:07.968Z,9.25
2018-11-01T04:24:37.445Z,7.85
2018-11-01T04:27:06.253Z,9.00
2018-11-01T04:29:36.136Z,8.78
2018-11-01T04:36:52.745Z,8.30
2018-11-01T04:39:21.907Z,8.55
2018-11-01T04:41:50.599Z,9.10
2018-11-01T04:44:19.444Z,8.58
2018-11-01T04:46:47.975Z,10.00
2018-11-01T04:49:16.517Z,8.15
2018-11-01T04:51:45.025Z,9.10
2018-11-01T04:54:13.999Z,9.20
2018-11-01T04:56:42.564Z,8.88
2018-11-01T04:59:11.735Z,8.80
2018-11-01T05:01:40.583Z,9.25
2018-11-01T05:05:33.655Z,7.60
2018-11-01T05:08:02.553Z,10.08
2018-11-01T05:10:31.084Z,9.65
2018-11-01T05:12:59.609Z,9.73
2018-11-01T05:15:28.849Z,8.63
2018-11-01T05:17:57.683Z,7.45
2018-11-01T05:20:26.530Z,8.80
2018-11-01T05:22:55.029Z,8.88
2018-11-01T05:25:24.189Z,8.78
2018-11-01T05:27:52.713Z,9.85
2018-11-01T05:30:21.214Z,9.60
2018-11-01T05:32:50.049Z,8.80
2018-11-01T05:35:18.554Z,9.25
2018-11-01T05:37:47.051Z,8.55
2018-11-01T05:40:16.445Z,10.05
2018-11-01T05:42:45.335Z,9.08
2018-11-01T05:45:14.629Z,7.95
2018-11-01T05:47:43.846Z,8.50
2018-11-01T05:50:12.381Z,8.78
2018-11-01T05:52:40.903Z,9.15
2018-11-01T05:55:10.062Z,9.13
2018-11-01T05:57:38.649Z,10.32
2018-11-01T06:00:11.627Z,9.28
2018-11-01T06:02:41.750Z,9.83
2018-11-01T06:05:10.441Z,8.00
2018-11-01T06:07:47.329Z,9.60
2018-11-01T06:10:16.197Z,10.80
2018-11-01T06:12:45.024Z,8.95
2018-11-01T06:15:13.569Z,9.65
2018-11-01T06:17:42.737Z,8.75
2018-11-01T06:20:11.965Z,9.80
2018-11-01T06:22:40.930Z,9.60
2018-11-01T06:25:10.393Z,9.50
2018-11-01T06:27:39.298Z,9.10
2018-11-01T06:30:14.074Z,9.98
2018-11-01T06:32:44.639Z,9.83
2018-11-01T06:35:18.633Z,8.68
2018-11-01T06:37:47.196Z,8.68
2018-11-01T06:43:15.145Z,10.70
2018-11-01T06:45:43.984Z,9.88
2018-11-01T06:48:12.625Z,10.72
2018-11-01T06:50:41.572Z,9.33
2018-11-01T06:53:11.137Z,9.28
2018-11-01T06:55:39.633Z,9.75
2018-11-01T06:58:08.529Z,13.40
2018-11-01T07:00:37.210Z,11.38
2018-11-01T07:03:06.066Z,11.08
2018-11-01T07:05:35.393Z,16.60
2018-11-01T07:08:04.171Z,15.68
2018-11-01T07:10:32.910Z,8.50
2018-11-01T07:13:01.420Z,7.55
2018-11-01T07:15:31.365Z,7.55
2018-11-01T07:17:59.891Z,7.75
2018-11-01T07:20:28.834Z,8.00
2018-11-01T07:22:57.326Z,6.75
2018-11-01T07:25:25.918Z,6.85
2018-11-01T07:27:54.838Z,9.08
2018-11-01T07:30:23.362Z,6.25
2018-11-01T07:32:52.337Z,5.55
2018-11-01T07:35:21.201Z,6.10
2018-11-01T07:37:50.388Z,5.10
2018-11-01T07:40:19.616Z,5.12
2018-11-01T07:42:48.137Z,5.15
2018-11-01T07:45:17.002Z,5.45
2018-11-01T07:47:45.982Z,8.38
2018-11-01T07:50:15.196Z,7.00
2018-11-01T07:52:43.783Z,5.15
2018-11-01T07:55:14.108Z,3.65
2018-11-01T07:57:43.424Z,3.70
2018-11-01T08:00:14.345Z,3.72
2018-11-01T08:02:43.959Z,8.20
2018-11-01T08:05:13.138Z,5.05
2018-11-01T08:07:42.464Z,4.60
2018-11-01T08:10:14.733Z,3.02
2018-11-01T08:12:44.752Z,3.70
2018-11-01T08:15:15.064Z,3.47
2018-11-01T08:17:43.900Z,3.00
2018-11-01T08:20:13.771Z,2.92
2018-11-01T08:22:42.546Z,4.10
2018-11-01T08:25:12.147Z,3.17
2018-11-01T08:27:41.678Z,2.70
2018-11-01T08:30:13.128Z,3.15
2018-11-01T08:32:42.335Z,3.10
2018-11-01T08:35:11.572Z,2.95
2018-11-01T08:37:41.757Z,3.08
2018-11-01T08:40:10.846Z,2.70
2018-11-01T08:42:40.537Z,2.60
2018-11-01T08:45:11.696Z,3.27
2018-11-01T08:47:41.017Z,3.10
2018-11-01T08:50:11.102Z,3.22
2018-11-01T08:52:40.956Z,3.12
2018-11-01T08:55:10.929Z,3.17
2018-11-01T08:57:40.775Z,2.65
2018-11-01T09:00:10.160Z,2.75
2018-11-01T09:02:38.773Z,2.98
2018-11-01T09:05:07.960Z,2.70
2018-11-01T09:07:37.060Z,2.98
2018-11-01T09:10:07.893Z,2.95
2018-11-01T09:12:36.774Z,2.65
2018-11-01T09:15:06.887Z,2.85
2018-11-01T09:17:35.769Z,2.47
2018-11-01T09:20:05.213Z,2.62
2018-11-01T09:22:33.756Z,2.52
2018-11-01T09:25:02.574Z,2.45
2018-11-01T09:27:32.001Z,2.52
2018-11-01T09:30:00.883Z,2.85
2018-11-01T09:32:29.775Z,2.67
2018-11-01T09:34:58.610Z,2.75
2018-11-01T09:37:27.429Z,2.80
2018-11-01T09:39:55.937Z,2.90
2018-11-01T09:42:24.472Z,2.52
2018-11-01T09:44:53.350Z,2.67
2018-11-01T09:47:22.729Z,2.72
2018-11-01T09:49:51.109Z,3.17
2018-11-01T09:52:19.605Z,2.30
2018-11-01T09:54:48.413Z,2.80
2018-11-01T09:57:16.925Z,3.42
2018-11-01T09:59:45.401Z,2.27
2018-11-01T10:02:14.614Z,2.40
2018-11-01T10:04:43.466Z,2.27
2018-11-01T10:07:12.736Z,2.70
2018-11-01T10:09:41.569Z,2.75
2018-11-01T10:12:10.763Z,2.42
2018-11-01T10:14:39.953Z,3.15
2018-11-01T10:17:09.106Z,2.20
2018-11-01T10:19:37.466Z,2.12
2018-11-01T10:22:06.506Z,3.42
2018-11-01T10:24:35.030Z,2.85
2018-11-01T10:27:03.919Z,2.45
2018-11-01T10:29:32.421Z,2.95
2018-11-01T10:32:00.938Z,2.77
2018-11-01T10:34:29.446Z,2.75
2018-11-01T10:36:57.965Z,3.40
2018-11-01T10:39:26.526Z,3.00
2018-11-01T10:41:55.074Z,3.72
2018-11-01T10:44:24.030Z,4.50
2018-11-01T10:46:52.532Z,2.80
2018-11-01T10:49:21.417Z,3.62
2018-11-01T10:51:50.330Z,3.40
2018-11-01T10:54:18.933Z,3.30
2018-11-01T10:56:47.983Z,3.30
2018-11-01T10:59:17.262Z,3.40
2018-11-01T11:01:51.657Z,3.00
2018-11-01T11:04:20.146Z,2.80
2018-11-01T11:06:48.959Z,3.33
2018-11-01T11:09:17.814Z,3.15
2018-11-01T11:11:46.968Z,3.00
2018-11-01T11:14:15.491Z,3.05
2018-11-01T11:16:44.818Z,2.75
2018-11-01T11:19:13.662Z,2.90
2018-11-01T11:21:42.522Z,3.00
2018-11-01T11:24:12.189Z,3.33
2018-11-01T11:26:40.701Z,3.30
2018-11-01T11:29:09.239Z,2.80
2018-11-01T11:31:37.732Z,3.00
2018-11-01T11:34:06.648Z,3.10
2018-11-01T11:36:35.131Z,3.72
2018-11-01T11:39:04.580Z,3.30
2018-11-01T11:41:33.253Z,3.42
2018-11-01T11:44:01.787Z,3.47
2018-11-01T11:46:30.650Z,3.62
2018-11-01T11:48:59.174Z,3.52
2018-11-01T11:51:27.756Z,4.10
2018-11-01T11:53:56.392Z,4.45
2018-11-01T11:56:25.570Z,3.85
2018-11-01T11:58:54.181Z,3.98
2018-11-01T12:01:23.265Z,4.37
2018-11-01T12:03:52.172Z,3.90
2018-11-01T12:06:20.886Z,3.85
2018-11-01T12:08:49.749Z,3.40
2018-11-01T12:11:18.557Z,3.65
2018-11-01T12:13:47.414Z,4.10
2018-11-01T12:16:15.940Z,3.70
2018-11-01T12:18:45.160Z,3.20
2018-11-01T12:21:13.641Z,4.42
2018-11-01T12:23:42.490Z,3.83
2018-11-01T12:26:11.193Z,4.10
2018-11-01T12:28:39.894Z,3.42
2018-11-01T12:31:08.484Z,4.40
2018-11-01T12:33:37.013Z,3.67
2018-11-01T12:36:05.739Z,3.65
2018-11-01T12:38:34.430Z,3.70
2018-11-01T12:41:03.173Z,4.10
2018-11-01T12:43:32.397Z,3.80
2018-11-01T12:46:01.583Z,3.83
2018-11-01T12:48:30.075Z,4.05
2018-11-01T12:50:58.602Z,3.90
2018-11-01T12:53:27.545Z,4.20
2018-11-01T12:55:56.097Z,5.08
2018-11-01T12:58:24.949Z,4.53
2018-11-01T13:00:53.817Z,3.75
2018-11-01T13:03:22.388Z,4.05
2018-11-01T13:05:50.896Z,4.62
2018-11-01T13:08:19.400Z,9.05
2018-11-01T13:10:48.091Z,4.55
2018-11-01T13:13:16.762Z,4.67
2018-11-01T13:15:45.659Z,3.25
2018-11-01T13:18:14.258Z,4.40
2018-11-01T13:20:43.423Z,4.10
2018-11-01T13:23:11.949Z,4.62
2018-11-01T13:25:40.461Z,5.30
2018-11-01T13:28:08.973Z,5.35
2018-11-01T13:30:37.489Z,4.55
2018-11-01T13:33:06.337Z,4.33
2018-11-01T13:35:35.305Z,4.40
2018-11-01T13:38:04.774Z,4.25
2018-11-01T13:40:33.905Z,4.42
2018-11-01T13:43:02.364Z,5.25
2018-11-01T13:45:31.284Z,4.90
2018-11-01T13:48:00.580Z,4.72
2018-11-01T13:50:29.477Z,4.72
2018-11-01T13:52:58.020Z,4.90
2018-11-01T13:55:27.418Z,5.22
2018-11-01T13:57:55.928Z,4.37
2018-11-01T14:00:24.473Z,4.90
2018-11-01T14:02:52.993Z,4.42
2018-11-01T14:05:21.833Z,5.17
2018-11-01T14:07:51.341Z,4.72
2018-11-01T14:10:19.897Z,5.20
2018-11-01T14:12:48.777Z,5.12
2018-11-01T14:15:18.010Z,4.60
2018-11-01T14:17:46.379Z,4.75
2018-11-01T14:20:15.217Z,4.60
2018-11-01T14:22:43.760Z,4.78
2018-11-01T14:25:13.161Z,4.70
2018-11-01T14:27:43.132Z,4.65
2018-11-01T14:30:14.837Z,5.90
2018-11-01T14:32:43.747Z,4.58
2018-11-01T14:36:05.606Z,5.10
2018-11-01T14:38:35.278Z,5.47
2018-11-01T14:41:10.772Z,4.75
2018-11-01T14:46:39.626Z,4.55
2018-11-01T14:49:09.060Z,5.80
2018-11-01T14:51:37.598Z,5.92
2018-11-01T14:55:10.686Z,5.12
2018-11-01T14:57:40.224Z,5.60
2018-11-01T15:00:08.455Z,5.40
2018-11-01T15:02:37.913Z,6.10
2018-11-01T15:05:07.005Z,7.47
2018-11-01T15:07:35.560Z,5.75
2018-11-01T15:10:04.453Z,8.53
2018-11-01T15:12:33.380Z,8.33
2018-11-01T15:15:01.936Z,6.00
2018-11-01T15:17:31.200Z,5.60
2018-11-01T15:20:00.733Z,8.63
2018-11-01T15:22:29.761Z,6.65
2018-11-01T15:24:58.637Z,6.15
2018-11-01T15:27:27.879Z,6.25
2018-11-01T15:29:56.771Z,6.22
2018-11-01T15:32:27.364Z,6.60
2018-11-01T15:34:56.446Z,5.90
2018-11-01T15:37:26.734Z,7.03
2018-11-01T15:39:55.996Z,6.53
2018-11-01T15:42:25.483Z,6.00
2018-11-01T15:44:54.366Z,5.08
2018-11-01T15:47:23.088Z,6.45
2018-11-01T15:49:51.646Z,5.12
2018-11-01T15:52:20.422Z,5.85
2018-11-01T15:54:48.957Z,5.40
2018-11-01T15:57:17.463Z,4.80
2018-11-01T15:59:46.228Z,5.65
2018-11-01T16:02:14.952Z,4.60
2018-11-01T16:04:43.620Z,4.87
2018-11-01T16:07:12.696Z,4.80
2018-11-01T16:09:41.242Z,5.47
2018-11-01T16:12:10.091Z,4.10
2018-11-01T16:14:38.600Z,7.58
2018-11-01T16:17:07.118Z,5.22
2018-11-01T16:19:36.406Z,6.00
2018-11-01T16:22:05.441Z,5.78
2018-11-01T16:24:33.985Z,5.37
2018-11-01T16:27:02.888Z,5.72
2018-11-01T16:29:31.538Z,4.58
2018-11-01T16:32:00.429Z,5.10
2018-11-01T16:34:29.435Z,5.05
2018-11-01T16:36:59.149Z,4.70
2018-11-01T16:39:27.886Z,5.35
2018-11-01T16:41:56.445Z,5.85
2018-11-01T16:44:25.212Z,7.25
2018-11-01T16:46:53.865Z,15.38
2018-11-01T16:49:22.402Z,7.95
2018-11-01T16:51:51.205Z,5.60
2018-11-01T16:54:19.743Z,5.53
2018-11-01T16:56:49.275Z,6.28
2018-11-01T16:59:17.792Z,5.70
2018-11-01T17:01:46.695Z,5.00
2018-11-01T17:04:15.246Z,6.03
2018-11-01T17:06:43.846Z,5.60
2018-11-01T17:09:12.411Z,5.60
2018-11-01T17:11:41.301Z,11.30
2018-11-01T17:14:10.203Z,7.62
2018-11-01T17:16:39.357Z,5.60
2018-11-01T17:19:19.399Z,6.08
2018-11-01T17:21:49.082Z,5.05
2018-11-01T17:24:17.776Z,5.50
2018-11-01T17:26:46.385Z,5.60
2018-11-01T17:29:16.991Z,4.60
2018-11-01T17:31:45.886Z,7.92
2018-11-01T17:34:15.077Z,5.37
2018-11-01T17:36:43.737Z,5.42
2018-11-01T17:58:29.475Z,18.15
2018-11-01T18:00:58.791Z,5.15
2018-11-01T18:03:28.035Z,5.62
2018-11-01T18:05:56.739Z,6.00
2018-11-01T18:08:27.005Z,6.90
2018-11-01T18:10:56.130Z,7.25
2018-11-01T18:13:25.232Z,6.22
2018-11-01T18:15:54.539Z,5.37
2018-11-01T18:18:23.765Z,5.53
2018-11-01T18:20:53.151Z,5.70
2018-11-01T18:23:23.254Z,5.15
2018-11-01T18:25:52.780Z,5.37
2018-11-01T18:28:21.598Z,5.87
2018-11-01T18:30:52.529Z,5.40
2018-11-01T18:33:22.035Z,13.80
2018-11-01T18:35:51.031Z,13.90
2018-11-01T18:38:21.122Z,7.47
2018-11-01T18:42:15.514Z,5.97
2018-11-01T18:44:45.265Z,21.07
2018-11-01T18:47:13.843Z,13.45
2018-11-01T18:49:44.279Z,8.00
2018-11-01T18:52:13.571Z,6.08
2018-11-01T18:54:44.491Z,7.00
2018-11-01T18:57:13.297Z,5.53
2018-11-01T18:59:41.900Z,6.37
2018-11-01T19:02:10.537Z,6.10
2018-11-01T19:04:39.093Z,6.72
2018-11-01T19:07:08.339Z,6.20
2018-11-01T19:09:37.505Z,5.45
2018-11-01T19:12:07.365Z,6.72
2018-11-01T19:14:38.102Z,13.90
2018-11-01T19:17:07.332Z,7.05
2018-11-01T19:19:36.714Z,6.50
2018-11-01T19:22:06.621Z,6.15
2018-11-01T19:24:35.455Z,6.55
2018-11-01T19:27:04.124Z,6.75
2018-11-01T19:29:33.474Z,6.17
2018-11-01T19:32:02.476Z,6.53
2018-11-01T19:34:31.623Z,6.72
2018-11-01T19:37:01.482Z,8.05
2018-11-01T19:39:30.004Z,18.75
2018-11-01T19:41:58.842Z,9.15
2018-11-01T19:44:27.813Z,11.12
2018-11-01T19:46:59.587Z,6.05
2018-11-01T19:49:29.125Z,6.60
2018-11-01T19:51:59.751Z,6.30
2018-11-01T19:54:28.565Z,5.78
2018-11-01T19:56:57.860Z,6.47
2018-11-01T19:59:27.748Z,6.03
2018-11-01T20:01:56.994Z,7.10
2018-11-01T20:04:25.859Z,17.52
2018-11-01T20:06:54.923Z,8.40
2018-11-01T20:09:23.807Z,7.70
2018-11-01T20:11:52.655Z,7.35
2018-11-01T20:14:21.389Z,7.22
2018-11-01T20:16:50.025Z,6.70
2018-11-01T20:19:19.765Z,7.10
2018-11-01T20:21:49.901Z,7.70
2018-11-01T20:24:20.416Z,6.87
2018-11-01T20:26:53.594Z,7.53
2018-11-01T20:29:24.355Z,7.55
2018-11-01T20:31:58.847Z,7.40
2018-11-01T20:34:28.703Z,7.10
2018-11-01T20:37:17.834Z,7.83
2018-11-01T20:39:46.719Z,6.62
2018-11-01T20:42:20.316Z,8.50
2018-11-01T20:44:50.190Z,8.53
2018-11-01T20:47:20.251Z,6.95
2018-11-01T20:49:50.106Z,9.45
2018-11-01T20:52:20.151Z,9.88
2018-11-01T20:54:49.805Z,7.05
2018-11-01T20:57:19.182Z,7.90
2018-11-01T20:59:47.862Z,8.43
2018-11-01T21:02:16.806Z,8.68
2018-11-01T21:04:47.252Z,7.70
2018-11-01T21:07:17.296Z,8.40
2018-11-01T21:09:46.126Z,8.03
2018-11-01T21:12:17.153Z,4.22
2018-11-01T21:14:45.694Z,6.15
2018-11-01T21:17:14.218Z,6.62
2018-11-01T21:19:42.962Z,7.83
2018-11-01T21:22:13.527Z,7.55
2018-11-01T21:24:43.405Z,6.62
2018-11-01T21:27:12.862Z,7.45
2018-11-01T21:29:41.440Z,7.80
2018-11-01T21:32:10.232Z,8.75
2018-11-01T21:34:39.590Z,6.87
2018-11-01T21:37:08.254Z,8.63
2018-11-01T21:39:37.969Z,8.38
2018-11-01T21:42:08.802Z,7.20
2018-11-01T21:44:37.350Z,7.10
2018-11-01T21:47:06.837Z,7.20
2018-11-01T21:49:35.651Z,8.05
2018-11-01T21:52:05.342Z,9.98
2018-11-01T21:54:35.311Z,7.85
2018-11-01T21:57:04.587Z,9.23
2018-11-01T21:59:33.405Z,9.60
2018-11-01T22:02:02.839Z,9.05
2018-11-01T22:04:31.457Z,9.33
2018-11-01T22:07:00.676Z,8.58
2018-11-01T22:09:30.621Z,8.35
2018-11-01T22:12:00.072Z,9.40
2018-11-01T22:14:29.715Z,8.00
2018-11-01T22:16:59.027Z,8.85
2018-11-01T22:19:28.561Z,8.70
2018-11-01T22:21:57.586Z,9.00
2018-11-01T22:24:27.279Z,10.88
2018-11-01T22:26:58.774Z,9.63
2018-11-01T22:32:10.439Z,9.60
2018-11-01T22:34:40.101Z,9.58
2018-11-01T22:37:09.732Z,9.10
2018-11-01T22:39:38.872Z,11.48
2018-11-01T22:42:07.643Z,9.20
2018-11-01T22:44:36.253Z,9.85
2018-11-01T22:47:05.899Z,10.00
2018-11-01T22:49:34.456Z,12.28
2018-11-01T22:52:04.434Z,10.28
2018-11-01T22:54:39.264Z,9.45
2018-11-01T22:57:11.205Z,10.10
2018-11-01T22:59:47.497Z,9.90
2018-11-01T23:02:17.076Z,10.38
2018-11-01T23:04:46.048Z,10.82
2018-11-01T23:07:14.640Z,10.15
2018-11-01T23:09:43.538Z,9.80
2018-11-01T23:12:12.479Z,10.53
2018-11-01T23:14:41.624Z,8.80
2018-11-01T23:17:11.618Z,9.88
2018-11-01T23:19:59.540Z,8.93
2018-11-01T23:22:39.155Z,9.93
2018-11-01T23:25:07.923Z,9.40
2018-11-01T23:27:37.002Z,10.90
2018-11-01T23:30:06.215Z,11.03
2018-11-01T23:32:35.026Z,10.48
2018-11-01T23:35:03.949Z,11.20
2018-11-01T23:37:37.968Z,10.38
2018-11-01T23:40:12.370Z,9.80
2018-11-01T23:42:53.334Z,9.60
2018-11-01T23:45:29.406Z,9.85
2018-11-01T23:47:59.765Z,8.30
2018-11-01T23:50:36.634Z,9.63
2018-11-01T23:53:10.850Z,9.28
2018-11-01T23:55:39.628Z,9.85
2018-11-01T23:58:08.947Z,8.48
